sensor_id;sensor_type;location;lat;lon;timestamp;P1;durP1;ratioP1;P2;durP2;ratioP2
4051;SDS011;2040;50.924;11.604;2023-04-16T00:02:15;6.27;;;4.20;;
4051;SDS011;2040;50.924;11.604;2023-04-16T00:04:41;6.97;;;3.73;;
4051;SDS011;2040;50.924;11.604;2023-04-16T00:07:07;5.33;;;3.93;;
4051;SDS011;2040;50.924;11.604;2023-04-16T00:09:32;7.83;;;4.23;;
4051;SDS011;2040;50.924;11.604;2023-04-16T00:11:58;7.37;;;4.57;;
4051;SDS011;2040;50.924;11.604;2023-04-16T00:14:24;6.67;;;4.63;;
4051;SDS011;2040;50.924;11.604;2023-04-16T00:16:49;8.80;;;5.13;;
4051;SDS011;2040;50.924;11.604;2023-04-16T00:19:15;9.07;;;5.60;;
4051;SDS011;2040;50.924;11.604;2023-04-16T00:21:40;8.13;;;5.10;;
4051;SDS011;2040;50.924;11.604;2023-04-16T00:24:06;7.60;;;4.80;;
4051;SDS011;2040;50.924;11.604;2023-04-16T00:26:31;9.57;;;5.57;;
4051;SDS011;2040;50.924;11.604;2023-04-16T00:28:57;7.33;;;4.97;;
4051;SDS011;2040;50.924;11.604;2023-04-16T00:31:26;8.03;;;5.27;;
4051;SDS011;2040;50.924;11.604;2023-04-16T00:33:57;8.47;;;5.13;;
4051;SDS011;2040;50.924;11.604;2023-04-16T00:36:23;6.03;;;4.13;;
4051;SDS011;2040;50.924;11.604;2023-04-16T00:38:49;6.80;;;4.70;;
4051;SDS011;2040;50.924;11.604;2023-04-16T00:41:15;7.37;;;4.77;;
4051;SDS011;2040;50.924;11.604;2023-04-16T00:43:41;7.97;;;5.07;;
4051;SDS011;2040;50.924;11.604;2023-04-16T00:46:07;7.67;;;5.03;;
4051;SDS011;2040;50.924;11.604;2023-04-16T00:48:33;6.10;;;4.30;;
4051;SDS011;2040;50.924;11.604;2023-04-16T00:51:03;7.73;;;5.50;;
4051;SDS011;2040;50.924;11.604;2023-04-16T00:53:30;8.20;;;4.30;;
4051;SDS011;2040;50.924;11.604;2023-04-16T00:55:55;7.47;;;4.70;;
4051;SDS011;2040;50.924;11.604;2023-04-16T00:58:21;5.33;;;4.10;;
4051;SDS011;2040;50.924;11.604;2023-04-16T01:00:47;6.10;;;4.30;;
4051;SDS011;2040;50.924;11.604;2023-04-16T01:03:13;6.37;;;4.57;;
4051;SDS011;2040;50.924;11.604;2023-04-16T01:05:39;8.13;;;4.50;;
4051;SDS011;2040;50.924;11.604;2023-04-16T01:08:05;5.33;;;3.80;;
4051;SDS011;2040;50.924;11.604;2023-04-16T01:10:30;5.40;;;3.80;;
4051;SDS011;2040;50.924;11.604;2023-04-16T01:12:56;9.00;;;4.43;;
4051;SDS011;2040;50.924;11.604;2023-04-16T01:15:22;7.83;;;3.93;;
4051;SDS011;2040;50.924;11.604;2023-04-16T01:17:47;5.20;;;3.80;;
4051;SDS011;2040;50.924;11.604;2023-04-16T01:20:13;4.80;;;3.30;;
4051;SDS011;2040;50.924;11.604;2023-04-16T01:22:38;6.40;;;4.10;;
4051;SDS011;2040;50.924;11.604;2023-04-16T01:25:04;4.60;;;3.23;;
4051;SDS011;2040;50.924;11.604;2023-04-16T01:27:30;5.63;;;4.33;;
4051;SDS011;2040;50.924;11.604;2023-04-16T01:29:56;8.50;;;4.60;;
4051;SDS011;2040;50.924;11.604;2023-04-16T01:32:22;5.97;;;4.47;;
4051;SDS011;2040;50.924;11.604;2023-04-16T01:34:47;7.80;;;4.00;;
4051;SDS011;2040;50.924;11.604;2023-04-16T01:37:13;5.43;;;3.83;;
4051;SDS011;2040;50.924;11.604;2023-04-16T01:39:38;6.67;;;4.67;;
4051;SDS011;2040;50.924;11.604;2023-04-16T01:42:04;7.80;;;4.30;;
4051;SDS011;2040;50.924;11.604;2023-04-16T01:44:30;7.10;;;4.97;;
4051;SDS011;2040;50.924;11.604;2023-04-16T01:46:55;7.67;;;4.17;;
4051;SDS011;2040;50.924;11.604;2023-04-16T01:49:21;7.53;;;5.10;;
4051;SDS011;2040;50.924;11.604;2023-04-16T01:51:47;6.80;;;4.80;;
4051;SDS011;2040;50.924;11.604;2023-04-16T01:54:13;6.90;;;4.50;;
4051;SDS011;2040;50.924;11.604;2023-04-16T01:56:38;7.37;;;5.13;;
4051;SDS011;2040;50.924;11.604;2023-04-16T01:59:04;9.30;;;4.97;;
4051;SDS011;2040;50.924;11.604;2023-04-16T02:01:29;9.03;;;5.17;;
4051;SDS011;2040;50.924;11.604;2023-04-16T02:03:55;9.03;;;5.60;;
4051;SDS011;2040;50.924;11.604;2023-04-16T02:06:21;6.53;;;4.30;;
4051;SDS011;2040;50.924;11.604;2023-04-16T02:08:47;9.60;;;5.53;;
4051;SDS011;2040;50.924;11.604;2023-04-16T02:11:13;11.17;;;6.53;;
4051;SDS011;2040;50.924;11.604;2023-04-16T02:13:38;9.00;;;5.37;;
4051;SDS011;2040;50.924;11.604;2023-04-16T02:16:04;10.70;;;5.57;;
4051;SDS011;2040;50.924;11.604;2023-04-16T02:18:30;9.23;;;5.27;;
4051;SDS011;2040;50.924;11.604;2023-04-16T02:20:56;8.63;;;4.83;;
4051;SDS011;2040;50.924;11.604;2023-04-16T02:23:24;7.80;;;5.20;;
4051;SDS011;2040;50.924;11.604;2023-04-16T02:25:49;7.60;;;4.77;;
4051;SDS011;2040;50.924;11.604;2023-04-16T02:28:15;8.10;;;5.30;;
4051;SDS011;2040;50.924;11.604;2023-04-16T02:30:41;11.47;;;6.93;;
4051;SDS011;2040;50.924;11.604;2023-04-16T02:33:08;9.53;;;5.73;;
4051;SDS011;2040;50.924;11.604;2023-04-16T02:35:35;9.50;;;5.20;;
4051;SDS011;2040;50.924;11.604;2023-04-16T02:38:02;9.00;;;6.13;;
4051;SDS011;2040;50.924;11.604;2023-04-16T02:40:28;9.30;;;5.60;;
4051;SDS011;2040;50.924;11.604;2023-04-16T02:42:54;8.30;;;5.60;;
4051;SDS011;2040;50.924;11.604;2023-04-16T02:45:20;8.87;;;5.63;;
4051;SDS011;2040;50.924;11.604;2023-04-16T02:47:46;8.93;;;5.30;;
4051;SDS011;2040;50.924;11.604;2023-04-16T02:50:13;8.63;;;5.07;;
4051;SDS011;2040;50.924;11.604;2023-04-16T02:52:39;11.13;;;5.70;;
4051;SDS011;2040;50.924;11.604;2023-04-16T02:55:05;8.93;;;5.30;;
4051;SDS011;2040;50.924;11.604;2023-04-16T02:57:31;8.60;;;5.00;;
4051;SDS011;2040;50.924;11.604;2023-04-16T02:59:57;8.27;;;4.93;;
4051;SDS011;2040;50.924;11.604;2023-04-16T03:02:22;7.50;;;4.60;;
4051;SDS011;2040;50.924;11.604;2023-04-16T03:04:48;10.20;;;5.60;;
4051;SDS011;2040;50.924;11.604;2023-04-16T03:07:13;6.50;;;4.97;;
4051;SDS011;2040;50.924;11.604;2023-04-16T03:09:39;8.40;;;4.60;;
4051;SDS011;2040;50.924;11.604;2023-04-16T03:12:05;7.60;;;4.80;;
4051;SDS011;2040;50.924;11.604;2023-04-16T03:14:31;7.60;;;4.33;;
4051;SDS011;2040;50.924;11.604;2023-04-16T03:16:57;8.30;;;4.97;;
4051;SDS011;2040;50.924;11.604;2023-04-16T03:19:22;6.10;;;3.90;;
4051;SDS011;2040;50.924;11.604;2023-04-16T03:21:48;6.47;;;4.10;;
4051;SDS011;2040;50.924;11.604;2023-04-16T03:24:14;5.30;;;3.50;;
4051;SDS011;2040;50.924;11.604;2023-04-16T03:26:39;5.87;;;4.07;;
4051;SDS011;2040;50.924;11.604;2023-04-16T03:29:05;6.60;;;3.80;;
4051;SDS011;2040;50.924;11.604;2023-04-16T03:31:30;7.33;;;4.43;;
4051;SDS011;2040;50.924;11.604;2023-04-16T03:33:56;8.00;;;4.50;;
4051;SDS011;2040;50.924;11.604;2023-04-16T03:36:21;5.20;;;3.40;;
4051;SDS011;2040;50.924;11.604;2023-04-16T03:38:50;5.97;;;4.33;;
4051;SDS011;2040;50.924;11.604;2023-04-16T03:41:16;6.87;;;4.53;;
4051;SDS011;2040;50.924;11.604;2023-04-16T03:43:41;5.87;;;3.80;;
4051;SDS011;2040;50.924;11.604;2023-04-16T03:46:07;5.90;;;3.80;;
4051;SDS011;2040;50.924;11.604;2023-04-16T03:48:32;6.13;;;3.97;;
4051;SDS011;2040;50.924;11.604;2023-04-16T03:50:58;8.53;;;4.90;;
4051;SDS011;2040;50.924;11.604;2023-04-16T03:53:23;6.97;;;4.40;;
4051;SDS011;2040;50.924;11.604;2023-04-16T03:55:49;6.47;;;4.10;;
4051;SDS011;2040;50.924;11.604;2023-04-16T03:58:16;10.20;;;4.27;;
4051;SDS011;2040;50.924;11.604;2023-04-16T04:00:41;6.00;;;3.70;;
4051;SDS011;2040;50.924;11.604;2023-04-16T04:03:08;7.40;;;4.70;;
4051;SDS011;2040;50.924;11.604;2023-04-16T04:05:38;6.63;;;4.33;;
4051;SDS011;2040;50.924;11.604;2023-04-16T04:08:05;8.30;;;4.73;;
4051;SDS011;2040;50.924;11.604;2023-04-16T04:10:31;6.73;;;4.10;;
4051;SDS011;2040;50.924;11.604;2023-04-16T04:12:57;8.03;;;4.77;;
4051;SDS011;2040;50.924;11.604;2023-04-16T04:15:23;9.10;;;5.10;;
4051;SDS011;2040;50.924;11.604;2023-04-16T04:17:49;7.10;;;4.47;;
4051;SDS011;2040;50.924;11.604;2023-04-16T04:20:14;8.87;;;4.60;;
4051;SDS011;2040;50.924;11.604;2023-04-16T04:22:40;7.80;;;5.00;;
4051;SDS011;2040;50.924;11.604;2023-04-16T04:25:06;8.23;;;4.80;;
4051;SDS011;2040;50.924;11.604;2023-04-16T04:27:32;11.13;;;5.40;;
4051;SDS011;2040;50.924;11.604;2023-04-16T04:29:58;10.07;;;4.67;;
4051;SDS011;2040;50.924;11.604;2023-04-16T04:32:23;8.07;;;4.80;;
4051;SDS011;2040;50.924;11.604;2023-04-16T04:34:49;11.10;;;5.07;;
4051;SDS011;2040;50.924;11.604;2023-04-16T04:37:15;8.73;;;5.90;;
4051;SDS011;2040;50.924;11.604;2023-04-16T04:39:40;13.57;;;6.60;;
4051;SDS011;2040;50.924;11.604;2023-04-16T04:42:07;10.13;;;5.60;;
4051;SDS011;2040;50.924;11.604;2023-04-16T04:44:33;10.90;;;6.13;;
4051;SDS011;2040;50.924;11.604;2023-04-16T04:46:58;10.70;;;6.47;;
4051;SDS011;2040;50.924;11.604;2023-04-16T04:49:24;10.57;;;6.20;;
4051;SDS011;2040;50.924;11.604;2023-04-16T04:51:50;12.80;;;5.73;;
4051;SDS011;2040;50.924;11.604;2023-04-16T04:54:15;11.90;;;6.60;;
4051;SDS011;2040;50.924;11.604;2023-04-16T04:56:41;12.00;;;6.40;;
4051;SDS011;2040;50.924;11.604;2023-04-16T04:59:09;14.50;;;6.70;;
4051;SDS011;2040;50.924;11.604;2023-04-16T05:01:35;10.10;;;5.63;;
4051;SDS011;2040;50.924;11.604;2023-04-16T05:04:00;11.00;;;6.87;;
4051;SDS011;2040;50.924;11.604;2023-04-16T05:06:26;16.10;;;7.43;;
4051;SDS011;2040;50.924;11.604;2023-04-16T05:08:52;11.67;;;7.00;;
4051;SDS011;2040;50.924;11.604;2023-04-16T05:11:17;17.10;;;7.90;;
4051;SDS011;2040;50.924;11.604;2023-04-16T05:13:43;12.87;;;6.53;;
4051;SDS011;2040;50.924;11.604;2023-04-16T05:16:09;9.77;;;6.00;;
4051;SDS011;2040;50.924;11.604;2023-04-16T05:18:34;11.23;;;7.13;;
4051;SDS011;2040;50.924;11.604;2023-04-16T05:21:00;15.40;;;7.57;;
4051;SDS011;2040;50.924;11.604;2023-04-16T05:23:25;15.13;;;7.47;;
4051;SDS011;2040;50.924;11.604;2023-04-16T05:25:51;13.77;;;6.70;;
4051;SDS011;2040;50.924;11.604;2023-04-16T05:28:16;14.60;;;8.67;;
4051;SDS011;2040;50.924;11.604;2023-04-16T05:30:42;11.43;;;7.90;;
4051;SDS011;2040;50.924;11.604;2023-04-16T05:33:07;15.97;;;6.77;;
4051;SDS011;2040;50.924;11.604;2023-04-16T05:35:33;12.10;;;6.97;;
4051;SDS011;2040;50.924;11.604;2023-04-16T05:37:59;13.33;;;8.13;;
4051;SDS011;2040;50.924;11.604;2023-04-16T05:40:24;10.77;;;7.10;;
4051;SDS011;2040;50.924;11.604;2023-04-16T05:42:51;8.57;;;5.30;;
4051;SDS011;2040;50.924;11.604;2023-04-16T05:45:16;12.47;;;4.77;;
4051;SDS011;2040;50.924;11.604;2023-04-16T05:47:42;8.20;;;4.40;;
4051;SDS011;2040;50.924;11.604;2023-04-16T05:50:08;6.97;;;4.73;;
4051;SDS011;2040;50.924;11.604;2023-04-16T05:52:34;8.03;;;4.93;;
4051;SDS011;2040;50.924;11.604;2023-04-16T05:54:59;8.03;;;4.37;;
4051;SDS011;2040;50.924;11.604;2023-04-16T05:57:26;5.83;;;3.37;;
4051;SDS011;2040;50.924;11.604;2023-04-16T05:59:52;7.70;;;4.90;;
4051;SDS011;2040;50.924;11.604;2023-04-16T06:02:18;5.90;;;3.97;;
4051;SDS011;2040;50.924;11.604;2023-04-16T06:04:44;8.07;;;5.00;;
4051;SDS011;2040;50.924;11.604;2023-04-16T06:07:10;6.37;;;4.03;;
4051;SDS011;2040;50.924;11.604;2023-04-16T06:09:35;7.37;;;4.70;;
4051;SDS011;2040;50.924;11.604;2023-04-16T06:12:01;8.10;;;4.93;;
4051;SDS011;2040;50.924;11.604;2023-04-16T06:14:27;7.47;;;4.10;;
4051;SDS011;2040;50.924;11.604;2023-04-16T06:16:52;6.47;;;3.73;;
4051;SDS011;2040;50.924;11.604;2023-04-16T06:19:18;7.20;;;4.40;;
4051;SDS011;2040;50.924;11.604;2023-04-16T06:21:43;5.20;;;3.17;;
4051;SDS011;2040;50.924;11.604;2023-04-16T06:24:09;7.33;;;4.33;;
4051;SDS011;2040;50.924;11.604;2023-04-16T06:26:35;4.67;;;3.20;;
4051;SDS011;2040;50.924;11.604;2023-04-16T06:29:00;6.83;;;3.30;;
4051;SDS011;2040;50.924;11.604;2023-04-16T06:31:26;5.37;;;3.27;;
4051;SDS011;2040;50.924;11.604;2023-04-16T06:33:52;8.40;;;3.83;;
4051;SDS011;2040;50.924;11.604;2023-04-16T06:36:17;7.20;;;4.23;;
4051;SDS011;2040;50.924;11.604;2023-04-16T06:38:43;7.00;;;3.87;;
4051;SDS011;2040;50.924;11.604;2023-04-16T06:41:08;4.93;;;3.60;;
4051;SDS011;2040;50.924;11.604;2023-04-16T06:43:34;5.90;;;3.60;;
4051;SDS011;2040;50.924;11.604;2023-04-16T06:46:00;5.87;;;3.83;;
4051;SDS011;2040;50.924;11.604;2023-04-16T06:48:26;5.73;;;4.00;;
4051;SDS011;2040;50.924;11.604;2023-04-16T06:50:52;6.30;;;4.13;;
4051;SDS011;2040;50.924;11.604;2023-04-16T06:53:18;6.20;;;4.60;;
4051;SDS011;2040;50.924;11.604;2023-04-16T06:55:43;6.27;;;4.50;;
4051;SDS011;2040;50.924;11.604;2023-04-16T06:58:09;7.73;;;4.40;;
4051;SDS011;2040;50.924;11.604;2023-04-16T07:00:35;4.70;;;4.10;;
4051;SDS011;2040;50.924;11.604;2023-04-16T07:03:00;7.40;;;4.60;;
4051;SDS011;2040;50.924;11.604;2023-04-16T07:05:26;8.00;;;4.93;;
4051;SDS011;2040;50.924;11.604;2023-04-16T07:07:51;8.33;;;5.27;;
4051;SDS011;2040;50.924;11.604;2023-04-16T07:10:17;8.40;;;5.50;;
4051;SDS011;2040;50.924;11.604;2023-04-16T07:12:42;8.03;;;4.90;;
4051;SDS011;2040;50.924;11.604;2023-04-16T07:15:08;8.13;;;4.63;;
4051;SDS011;2040;50.924;11.604;2023-04-16T07:17:34;6.00;;;4.80;;
4051;SDS011;2040;50.924;11.604;2023-04-16T07:20:00;6.93;;;5.13;;
4051;SDS011;2040;50.924;11.604;2023-04-16T07:22:25;10.40;;;5.03;;
4051;SDS011;2040;50.924;11.604;2023-04-16T07:24:51;8.80;;;5.33;;
4051;SDS011;2040;50.924;11.604;2023-04-16T07:27:16;9.73;;;5.70;;
4051;SDS011;2040;50.924;11.604;2023-04-16T07:29:42;7.60;;;5.47;;
4051;SDS011;2040;50.924;11.604;2023-04-16T07:32:10;7.50;;;5.47;;
4051;SDS011;2040;50.924;11.604;2023-04-16T07:34:35;9.07;;;4.70;;
4051;SDS011;2040;50.924;11.604;2023-04-16T07:37:01;10.30;;;5.07;;
4051;SDS011;2040;50.924;11.604;2023-04-16T07:39:27;6.83;;;5.10;;
4051;SDS011;2040;50.924;11.604;2023-04-16T07:41:52;8.63;;;5.77;;
4051;SDS011;2040;50.924;11.604;2023-04-16T07:44:18;7.90;;;4.53;;
4051;SDS011;2040;50.924;11.604;2023-04-16T07:46:46;9.07;;;4.80;;
4051;SDS011;2040;50.924;11.604;2023-04-16T07:49:12;10.60;;;5.20;;
4051;SDS011;2040;50.924;11.604;2023-04-16T07:51:38;9.63;;;5.40;;
4051;SDS011;2040;50.924;11.604;2023-04-16T07:54:04;7.70;;;5.73;;
4051;SDS011;2040;50.924;11.604;2023-04-16T07:56:30;7.93;;;5.37;;
4051;SDS011;2040;50.924;11.604;2023-04-16T07:58:55;96.17;;;9.97;;
4051;SDS011;2040;50.924;11.604;2023-04-16T08:01:21;9.00;;;5.27;;
4051;SDS011;2040;50.924;11.604;2023-04-16T08:03:46;7.23;;;4.57;;
4051;SDS011;2040;50.924;11.604;2023-04-16T08:06:12;8.70;;;5.60;;
4051;SDS011;2040;50.924;11.604;2023-04-16T08:08:37;10.60;;;6.33;;
4051;SDS011;2040;50.924;11.604;2023-04-16T08:11:03;9.00;;;5.07;;
4051;SDS011;2040;50.924;11.604;2023-04-16T08:13:28;10.30;;;5.43;;
4051;SDS011;2040;50.924;11.604;2023-04-16T08:15:54;7.50;;;5.20;;
4051;SDS011;2040;50.924;11.604;2023-04-16T08:18:20;7.70;;;5.43;;
4051;SDS011;2040;50.924;11.604;2023-04-16T08:20:45;7.20;;;4.70;;
4051;SDS011;2040;50.924;11.604;2023-04-16T08:23:11;7.90;;;5.30;;
4051;SDS011;2040;50.924;11.604;2023-04-16T08:25:36;7.13;;;5.03;;
4051;SDS011;2040;50.924;11.604;2023-04-16T08:28:02;9.03;;;5.90;;
4051;SDS011;2040;50.924;11.604;2023-04-16T08:30:27;7.43;;;5.40;;
4051;SDS011;2040;50.924;11.604;2023-04-16T08:32:53;7.90;;;6.00;;
4051;SDS011;2040;50.924;11.604;2023-04-16T08:35:19;10.80;;;5.90;;
4051;SDS011;2040;50.924;11.604;2023-04-16T08:37:45;9.50;;;5.40;;
4051;SDS011;2040;50.924;11.604;2023-04-16T08:40:10;11.03;;;6.47;;
4051;SDS011;2040;50.924;11.604;2023-04-16T08:42:38;14.10;;;8.10;;
4051;SDS011;2040;50.924;11.604;2023-04-16T08:47:47;11.60;;;7.37;;
4051;SDS011;2040;50.924;11.604;2023-04-16T08:50:15;18.23;;;9.80;;
4051;SDS011;2040;50.924;11.604;2023-04-16T08:52:44;13.13;;;8.50;;
4051;SDS011;2040;50.924;11.604;2023-04-16T08:55:15;17.70;;;10.37;;
4051;SDS011;2040;50.924;11.604;2023-04-16T09:00:17;17.83;;;10.40;;
4051;SDS011;2040;50.924;11.604;2023-04-16T09:02:49;21.83;;;12.57;;
4051;SDS011;2040;50.924;11.604;2023-04-16T09:05:15;19.43;;;11.60;;
4051;SDS011;2040;50.924;11.604;2023-04-16T09:07:46;20.37;;;10.50;;
4051;SDS011;2040;50.924;11.604;2023-04-16T09:10:16;22.23;;;10.67;;
4051;SDS011;2040;50.924;11.604;2023-04-16T09:12:47;21.93;;;10.53;;
4051;SDS011;2040;50.924;11.604;2023-04-16T09:15:58;17.53;;;10.87;;
4051;SDS011;2040;50.924;11.604;2023-04-16T09:19:03;15.93;;;10.53;;
4051;SDS011;2040;50.924;11.604;2023-04-16T09:21:46;14.77;;;9.23;;
4051;SDS011;2040;50.924;11.604;2023-04-16T09:24:39;15.70;;;9.70;;
4051;SDS011;2040;50.924;11.604;2023-04-16T09:27:36;15.07;;;9.60;;
4051;SDS011;2040;50.924;11.604;2023-04-16T09:30:35;14.87;;;9.93;;
4051;SDS011;2040;50.924;11.604;2023-04-16T09:33:16;17.67;;;11.00;;
4051;SDS011;2040;50.924;11.604;2023-04-16T09:35:52;19.77;;;10.30;;
4051;SDS011;2040;50.924;11.604;2023-04-16T09:38:18;21.70;;;10.17;;
4051;SDS011;2040;50.924;11.604;2023-04-16T09:40:44;15.33;;;9.60;;
4051;SDS011;2040;50.924;11.604;2023-04-16T09:43:14;17.10;;;9.30;;
4051;SDS011;2040;50.924;11.604;2023-04-16T09:45:51;15.90;;;8.70;;
4051;SDS011;2040;50.924;11.604;2023-04-16T09:48:28;15.83;;;9.63;;
4051;SDS011;2040;50.924;11.604;2023-04-16T09:50:57;17.00;;;9.60;;
4051;SDS011;2040;50.924;11.604;2023-04-16T09:53:25;13.33;;;8.13;;
4051;SDS011;2040;50.924;11.604;2023-04-16T10:06:16;14.10;;;9.00;;
4051;SDS011;2040;50.924;11.604;2023-04-16T10:10:23;9.03;;;6.03;;
4051;SDS011;2040;50.924;11.604;2023-04-16T10:13:03;11.37;;;7.13;;
4051;SDS011;2040;50.924;11.604;2023-04-16T10:15:46;9.27;;;6.60;;
4051;SDS011;2040;50.924;11.604;2023-04-16T10:18:27;9.17;;;5.97;;
4051;SDS011;2040;50.924;11.604;2023-04-16T10:21:28;8.43;;;5.40;;
4051;SDS011;2040;50.924;11.604;2023-04-16T10:24:12;9.27;;;6.20;;
4051;SDS011;2040;50.924;11.604;2023-04-16T10:27:04;12.30;;;7.47;;
4051;SDS011;2040;50.924;11.604;2023-04-16T10:29:33;12.03;;;7.67;;
4051;SDS011;2040;50.924;11.604;2023-04-16T10:31:59;15.50;;;8.80;;
4051;SDS011;2040;50.924;11.604;2023-04-16T10:34:25;32.33;;;16.37;;
4051;SDS011;2040;50.924;11.604;2023-04-16T10:36:53;19.00;;;12.00;;
4051;SDS011;2040;50.924;11.604;2023-04-16T10:39:20;11.50;;;6.80;;
4051;SDS011;2040;50.924;11.604;2023-04-16T10:41:47;12.80;;;7.80;;
4051;SDS011;2040;50.924;11.604;2023-04-16T10:44:14;11.50;;;6.90;;
4051;SDS011;2040;50.924;11.604;2023-04-16T10:46:41;10.77;;;6.57;;
4051;SDS011;2040;50.924;11.604;2023-04-16T10:49:24;12.30;;;6.77;;
4051;SDS011;2040;50.924;11.604;2023-04-16T10:54:30;10.97;;;7.40;;
4051;SDS011;2040;50.924;11.604;2023-04-16T10:56:57;13.70;;;7.67;;
4051;SDS011;2040;50.924;11.604;2023-04-16T10:59:24;12.20;;;7.00;;
4051;SDS011;2040;50.924;11.604;2023-04-16T11:01:55;7.77;;;5.80;;
4051;SDS011;2040;50.924;11.604;2023-04-16T11:09:57;9.23;;;5.90;;
4051;SDS011;2040;50.924;11.604;2023-04-16T11:12:36;11.30;;;6.83;;
4051;SDS011;2040;50.924;11.604;2023-04-16T11:15:13;9.50;;;5.87;;
4051;SDS011;2040;50.924;11.604;2023-04-16T11:17:44;9.10;;;5.93;;
4051;SDS011;2040;50.924;11.604;2023-04-16T11:20:15;11.03;;;6.90;;
4051;SDS011;2040;50.924;11.604;2023-04-16T11:22:42;7.90;;;5.67;;
4051;SDS011;2040;50.924;11.604;2023-04-16T11:25:09;10.77;;;5.73;;
4051;SDS011;2040;50.924;11.604;2023-04-16T11:27:36;10.00;;;6.30;;
4051;SDS011;2040;50.924;11.604;2023-04-16T11:30:06;12.60;;;7.23;;
4051;SDS011;2040;50.924;11.604;2023-04-16T11:32:34;12.97;;;6.57;;
4051;SDS011;2040;50.924;11.604;2023-04-16T11:35:02;13.77;;;5.73;;
4051;SDS011;2040;50.924;11.604;2023-04-16T11:37:36;8.20;;;5.20;;
4051;SDS011;2040;50.924;11.604;2023-04-16T11:40:06;8.67;;;6.43;;
4051;SDS011;2040;50.924;11.604;2023-04-16T11:42:34;13.07;;;7.50;;
4051;SDS011;2040;50.924;11.604;2023-04-16T11:45:05;13.23;;;7.33;;
4051;SDS011;2040;50.924;11.604;2023-04-16T11:47:47;11.60;;;6.10;;
4051;SDS011;2040;50.924;11.604;2023-04-16T11:50:18;11.37;;;7.10;;
4051;SDS011;2040;50.924;11.604;2023-04-16T11:52:44;9.90;;;6.33;;
4051;SDS011;2040;50.924;11.604;2023-04-16T11:55:10;12.00;;;6.40;;
4051;SDS011;2040;50.924;11.604;2023-04-16T11:57:36;12.30;;;6.43;;
4051;SDS011;2040;50.924;11.604;2023-04-16T12:00:02;11.67;;;6.57;;
4051;SDS011;2040;50.924;11.604;2023-04-16T12:08:02;10.83;;;5.90;;
4051;SDS011;2040;50.924;11.604;2023-04-16T12:10:28;8.87;;;5.67;;
4051;SDS011;2040;50.924;11.604;2023-04-16T12:13:11;13.30;;;6.20;;
4051;SDS011;2040;50.924;11.604;2023-04-16T12:15:51;9.57;;;5.67;;
4051;SDS011;2040;50.924;11.604;2023-04-16T12:18:18;9.77;;;5.90;;
4051;SDS011;2040;50.924;11.604;2023-04-16T12:20:44;10.73;;;6.47;;
4051;SDS011;2040;50.924;11.604;2023-04-16T12:23:27;11.30;;;6.53;;
4051;SDS011;2040;50.924;11.604;2023-04-16T12:25:54;14.33;;;7.10;;
4051;SDS011;2040;50.924;11.604;2023-04-16T12:28:30;10.67;;;6.40;;
4051;SDS011;2040;50.924;11.604;2023-04-16T12:30:58;12.00;;;6.87;;
4051;SDS011;2040;50.924;11.604;2023-04-16T12:33:25;11.70;;;7.27;;
4051;SDS011;2040;50.924;11.604;2023-04-16T12:35:51;13.83;;;6.97;;
4051;SDS011;2040;50.924;11.604;2023-04-16T12:38:20;13.00;;;7.93;;
4051;SDS011;2040;50.924;11.604;2023-04-16T12:40:45;11.00;;;7.10;;
4051;SDS011;2040;50.924;11.604;2023-04-16T12:43:11;11.07;;;7.20;;
4051;SDS011;2040;50.924;11.604;2023-04-16T12:45:37;14.60;;;7.03;;
4051;SDS011;2040;50.924;11.604;2023-04-16T12:48:03;11.97;;;5.90;;
4051;SDS011;2040;50.924;11.604;2023-04-16T12:50:29;10.80;;;6.30;;
4051;SDS011;2040;50.924;11.604;2023-04-16T12:52:55;11.63;;;6.13;;
4051;SDS011;2040;50.924;11.604;2023-04-16T12:55:21;11.87;;;6.70;;
4051;SDS011;2040;50.924;11.604;2023-04-16T12:57:47;12.70;;;7.47;;
4051;SDS011;2040;50.924;11.604;2023-04-16T13:00:16;10.60;;;6.07;;
4051;SDS011;2040;50.924;11.604;2023-04-16T13:02:42;9.27;;;6.13;;
4051;SDS011;2040;50.924;11.604;2023-04-16T13:05:08;14.40;;;8.03;;
4051;SDS011;2040;50.924;11.604;2023-04-16T13:07:34;16.03;;;8.00;;
4051;SDS011;2040;50.924;11.604;2023-04-16T13:10:00;12.20;;;6.90;;
4051;SDS011;2040;50.924;11.604;2023-04-16T13:12:28;13.37;;;7.60;;
4051;SDS011;2040;50.924;11.604;2023-04-16T13:14:56;15.30;;;8.27;;
4051;SDS011;2040;50.924;11.604;2023-04-16T13:17:22;16.30;;;8.80;;
4051;SDS011;2040;50.924;11.604;2023-04-16T13:19:48;16.97;;;8.37;;
4051;SDS011;2040;50.924;11.604;2023-04-16T13:22:13;18.90;;;9.93;;
4051;SDS011;2040;50.924;11.604;2023-04-16T13:24:39;19.83;;;8.00;;
4051;SDS011;2040;50.924;11.604;2023-04-16T13:27:04;14.70;;;8.53;;
4051;SDS011;2040;50.924;11.604;2023-04-16T13:29:32;18.30;;;9.73;;
4051;SDS011;2040;50.924;11.604;2023-04-16T13:32:00;16.70;;;9.10;;
4051;SDS011;2040;50.924;11.604;2023-04-16T13:34:25;18.80;;;8.80;;
4051;SDS011;2040;50.924;11.604;2023-04-16T13:36:51;15.73;;;9.40;;
4051;SDS011;2040;50.924;11.604;2023-04-16T13:39:17;16.00;;;8.63;;
4051;SDS011;2040;50.924;11.604;2023-04-16T13:41:43;21.43;;;9.50;;
4051;SDS011;2040;50.924;11.604;2023-04-16T13:44:09;14.60;;;9.20;;
4051;SDS011;2040;50.924;11.604;2023-04-16T13:46:35;18.10;;;8.87;;
4051;SDS011;2040;50.924;11.604;2023-04-16T13:49:00;16.07;;;8.20;;
4051;SDS011;2040;50.924;11.604;2023-04-16T13:51:26;17.30;;;10.63;;
4051;SDS011;2040;50.924;11.604;2023-04-16T13:53:52;12.93;;;7.97;;
4051;SDS011;2040;50.924;11.604;2023-04-16T13:56:18;18.07;;;9.27;;
4051;SDS011;2040;50.924;11.604;2023-04-16T13:58:44;17.60;;;9.53;;
4051;SDS011;2040;50.924;11.604;2023-04-16T14:01:10;15.87;;;8.70;;
4051;SDS011;2040;50.924;11.604;2023-04-16T14:03:35;17.30;;;9.00;;
4051;SDS011;2040;50.924;11.604;2023-04-16T14:06:02;17.13;;;8.93;;
4051;SDS011;2040;50.924;11.604;2023-04-16T14:08:29;19.53;;;9.53;;
4051;SDS011;2040;50.924;11.604;2023-04-16T14:10:55;20.80;;;9.77;;
4051;SDS011;2040;50.924;11.604;2023-04-16T14:13:21;26.50;;;9.90;;
4051;SDS011;2040;50.924;11.604;2023-04-16T14:15:47;15.47;;;8.77;;
4051;SDS011;2040;50.924;11.604;2023-04-16T14:18:13;24.47;;;9.60;;
4051;SDS011;2040;50.924;11.604;2023-04-16T14:20:39;18.73;;;9.77;;
4051;SDS011;2040;50.924;11.604;2023-04-16T14:23:04;20.40;;;10.00;;
4051;SDS011;2040;50.924;11.604;2023-04-16T14:25:30;20.87;;;10.50;;
4051;SDS011;2040;50.924;11.604;2023-04-16T14:27:57;21.80;;;9.73;;
4051;SDS011;2040;50.924;11.604;2023-04-16T14:30:26;17.00;;;9.03;;
4051;SDS011;2040;50.924;11.604;2023-04-16T14:32:52;20.03;;;10.00;;
4051;SDS011;2040;50.924;11.604;2023-04-16T14:35:17;19.83;;;9.20;;
4051;SDS011;2040;50.924;11.604;2023-04-16T14:37:43;26.03;;;10.17;;
4051;SDS011;2040;50.924;11.604;2023-04-16T14:40:12;20.23;;;10.60;;
4051;SDS011;2040;50.924;11.604;2023-04-16T14:42:37;24.37;;;12.70;;
4051;SDS011;2040;50.924;11.604;2023-04-16T14:45:03;21.73;;;12.40;;
4051;SDS011;2040;50.924;11.604;2023-04-16T14:47:31;22.40;;;11.53;;
4051;SDS011;2040;50.924;11.604;2023-04-16T14:50:00;32.47;;;13.27;;
4051;SDS011;2040;50.924;11.604;2023-04-16T14:52:26;35.90;;;12.53;;
4051;SDS011;2040;50.924;11.604;2023-04-16T14:54:52;21.83;;;10.80;;
4051;SDS011;2040;50.924;11.604;2023-04-16T14:57:21;27.50;;;11.60;;
4051;SDS011;2040;50.924;11.604;2023-04-16T14:59:47;30.73;;;13.37;;
4051;SDS011;2040;50.924;11.604;2023-04-16T15:02:13;37.10;;;19.10;;
4051;SDS011;2040;50.924;11.604;2023-04-16T15:04:39;25.40;;;13.40;;
4051;SDS011;2040;50.924;11.604;2023-04-16T15:07:05;35.70;;;13.63;;
4051;SDS011;2040;50.924;11.604;2023-04-16T15:09:30;33.53;;;15.40;;
4051;SDS011;2040;50.924;11.604;2023-04-16T15:11:56;36.23;;;16.80;;
4051;SDS011;2040;50.924;11.604;2023-04-16T15:14:22;36.07;;;14.27;;
4051;SDS011;2040;50.924;11.604;2023-04-16T15:16:50;27.73;;;12.33;;
4051;SDS011;2040;50.924;11.604;2023-04-16T15:19:16;28.73;;;14.90;;
4051;SDS011;2040;50.924;11.604;2023-04-16T15:21:42;31.20;;;14.83;;
4051;SDS011;2040;50.924;11.604;2023-04-16T15:24:08;38.00;;;16.60;;
4051;SDS011;2040;50.924;11.604;2023-04-16T15:26:33;29.00;;;14.40;;